sensor_id;sensor_type;location;lat;lon;timestamp;temperature;humidity
43920;DHT22;29578;51.946;5.874;2022-10-16T00:00:17;13.50;90.30
43920;DHT22;29578;51.946;5.874;2022-10-16T00:02:42;13.40;90.20
43920;DHT22;29578;51.946;5.874;2022-10-16T00:05:08;13.40;90.20
43920;DHT22;29578;51.946;5.874;2022-10-16T00:07:34;13.40;90.20
43920;DHT22;29578;51.946;5.874;2022-10-16T00:09:59;13.40;90.50
43920;DHT22;29578;51.946;5.874;2022-10-16T00:12:25;13.40;90.20
43920;DHT22;29578;51.946;5.874;2022-10-16T00:14:51;13.50;90.30
43920;DHT22;29578;51.946;5.874;2022-10-16T00:17:17;13.50;90.30
43920;DHT22;29578;51.946;5.874;2022-10-16T00:19:43;13.40;90.30
43920;DHT22;29578;51.946;5.874;2022-10-16T00:22:08;13.40;90.20
43920;DHT22;29578;51.946;5.874;2022-10-16T00:24:34;13.40;90.30
43920;DHT22;29578;51.946;5.874;2022-10-16T00:27:00;13.30;90.30
43920;DHT22;29578;51.946;5.874;2022-10-16T00:29:26;13.30;90.30
43920;DHT22;29578;51.946;5.874;2022-10-16T00:31:51;13.30;90.60
43920;DHT22;29578;51.946;5.874;2022-10-16T00:34:17;13.30;90.30
43920;DHT22;29578;51.946;5.874;2022-10-16T00:36:43;13.20;90.30
43920;DHT22;29578;51.946;5.874;2022-10-16T00:39:10;13.20;90.40
43920;DHT22;29578;51.946;5.874;2022-10-16T00:41:35;13.20;90.40
43920;DHT22;29578;51.946;5.874;2022-10-16T00:44:40;13.20;90.40
43920;DHT22;29578;51.946;5.874;2022-10-16T00:46:50;13.20;90.40
43920;DHT22;29578;51.946;5.874;2022-10-16T00:49:17;13.20;90.40
43920;DHT22;29578;51.946;5.874;2022-10-16T00:51:47;13.10;90.30
43920;DHT22;29578;51.946;5.874;2022-10-16T00:56:55;13.20;90.30
43920;DHT22;29578;51.946;5.874;2022-10-16T00:59:35;13.20;90.30
43920;DHT22;29578;51.946;5.874;2022-10-16T01:02:02;13.20;90.40
43920;DHT22;29578;51.946;5.874;2022-10-16T01:04:34;13.20;90.30
43920;DHT22;29578;51.946;5.874;2022-10-16T01:07:12;13.20;90.30
43920;DHT22;29578;51.946;5.874;2022-10-16T01:15:25;13.20;90.30
43920;DHT22;29578;51.946;5.874;2022-10-16T01:18:08;13.20;90.60
43920;DHT22;29578;51.946;5.874;2022-10-16T01:20:50;13.20;90.40
43920;DHT22;29578;51.946;5.874;2022-10-16T01:26:40;13.20;90.40
43920;DHT22;29578;51.946;5.874;2022-10-16T01:29:16;13.20;90.30
43920;DHT22;29578;51.946;5.874;2022-10-16T01:31:57;13.20;90.30
43920;DHT22;29578;51.946;5.874;2022-10-16T01:34:32;13.20;90.30
43920;DHT22;29578;51.946;5.874;2022-10-16T01:37:06;13.20;90.40
43920;DHT22;29578;51.946;5.874;2022-10-16T01:39:35;13.20;90.40
43920;DHT22;29578;51.946;5.874;2022-10-16T01:42:09;13.20;90.40
43920;DHT22;29578;51.946;5.874;2022-10-16T01:44:38;13.20;90.40
43920;DHT22;29578;51.946;5.874;2022-10-16T01:47:05;13.20;90.40
43920;DHT22;29578;51.946;5.874;2022-10-16T01:49:33;13.10;90.40
43920;DHT22;29578;51.946;5.874;2022-10-16T01:52:04;13.20;90.40
43920;DHT22;29578;51.946;5.874;2022-10-16T01:54:35;13.20;90.30
43920;DHT22;29578;51.946;5.874;2022-10-16T01:57:03;13.20;90.40
43920;DHT22;29578;51.946;5.874;2022-10-16T01:59:32;13.20;90.40
43920;DHT22;29578;51.946;5.874;2022-10-16T02:02:03;13.30;90.40
43920;DHT22;29578;51.946;5.874;2022-10-16T02:04:36;13.30;90.40
43920;DHT22;29578;51.946;5.874;2022-10-16T02:07:03;13.30;90.40
43920;DHT22;29578;51.946;5.874;2022-10-16T02:09:30;13.20;90.40
43920;DHT22;29578;51.946;5.874;2022-10-16T02:11:58;13.30;90.40
43920;DHT22;29578;51.946;5.874;2022-10-16T02:14:25;13.30;90.40
43920;DHT22;29578;51.946;5.874;2022-10-16T02:16:51;13.20;90.40
43920;DHT22;29578;51.946;5.874;2022-10-16T02:19:18;13.30;90.40
43920;DHT22;29578;51.946;5.874;2022-10-16T02:21:59;13.30;90.40
43920;DHT22;29578;51.946;5.874;2022-10-16T02:24:49;13.30;90.40
43920;DHT22;29578;51.946;5.874;2022-10-16T02:30:14;13.30;90.40
43920;DHT22;29578;51.946;5.874;2022-10-16T02:32:46;13.40;90.40
43920;DHT22;29578;51.946;5.874;2022-10-16T02:35:16;13.30;90.40
43920;DHT22;29578;51.946;5.874;2022-10-16T02:37:42;13.30;90.40
43920;DHT22;29578;51.946;5.874;2022-10-16T02:40:09;13.30;90.40
43920;DHT22;29578;51.946;5.874;2022-10-16T02:42:37;13.40;90.50
43920;DHT22;29578;51.946;5.874;2022-10-16T02:45:04;13.20;90.40
43920;DHT22;29578;51.946;5.874;2022-10-16T02:47:30;13.40;90.50
43920;DHT22;29578;51.946;5.874;2022-10-16T02:49:56;13.30;90.50
43920;DHT22;29578;51.946;5.874;2022-10-16T02:52:23;13.30;90.50
43920;DHT22;29578;51.946;5.874;2022-10-16T02:54:49;13.20;90.50
43920;DHT22;29578;51.946;5.874;2022-10-16T02:57:14;13.30;90.50
43920;DHT22;29578;51.946;5.874;2022-10-16T02:59:40;13.30;90.60
43920;DHT22;29578;51.946;5.874;2022-10-16T03:02:06;13.20;90.60
43920;DHT22;29578;51.946;5.874;2022-10-16T03:04:32;13.20;90.60
43920;DHT22;29578;51.946;5.874;2022-10-16T03:06:58;13.20;90.60
43920;DHT22;29578;51.946;5.874;2022-10-16T03:09:23;13.20;90.60
43920;DHT22;29578;51.946;5.874;2022-10-16T03:11:49;13.20;90.70
43920;DHT22;29578;51.946;5.874;2022-10-16T03:14:15;13.20;90.70
43920;DHT22;29578;51.946;5.874;2022-10-16T03:16:41;13.20;90.70
43920;DHT22;29578;51.946;5.874;2022-10-16T03:19:06;13.20;90.70
43920;DHT22;29578;51.946;5.874;2022-10-16T03:21:32;13.20;90.70
43920;DHT22;29578;51.946;5.874;2022-10-16T03:23:58;13.10;90.70
43920;DHT22;29578;51.946;5.874;2022-10-16T03:26:24;13.10;90.70
43920;DHT22;29578;51.946;5.874;2022-10-16T03:28:49;13.10;90.70
43920;DHT22;29578;51.946;5.874;2022-10-16T03:31:15;13.10;90.80
43920;DHT22;29578;51.946;5.874;2022-10-16T03:33:41;13.10;90.70
43920;DHT22;29578;51.946;5.874;2022-10-16T03:36:06;13.10;90.70
43920;DHT22;29578;51.946;5.874;2022-10-16T03:38:32;13.10;90.70
43920;DHT22;29578;51.946;5.874;2022-10-16T03:40:58;13.10;90.70
43920;DHT22;29578;51.946;5.874;2022-10-16T03:43:24;13.20;90.70
43920;DHT22;29578;51.946;5.874;2022-10-16T03:45:50;13.20;90.70
43920;DHT22;29578;51.946;5.874;2022-10-16T03:48:18;13.10;90.70
43920;DHT22;29578;51.946;5.874;2022-10-16T03:50:43;13.20;90.70
43920;DHT22;29578;51.946;5.874;2022-10-16T03:53:09;13.10;90.70
43920;DHT22;29578;51.946;5.874;2022-10-16T03:55:35;13.20;90.80
43920;DHT22;29578;51.946;5.874;2022-10-16T03:58:01;13.10;90.70
43920;DHT22;29578;51.946;5.874;2022-10-16T04:00:27;13.10;90.70
43920;DHT22;29578;51.946;5.874;2022-10-16T04:02:53;13.10;90.70
43920;DHT22;29578;51.946;5.874;2022-10-16T04:05:19;13.10;90.70
43920;DHT22;29578;51.946;5.874;2022-10-16T04:07:44;13.00;90.70
43920;DHT22;29578;51.946;5.874;2022-10-16T04:10:10;13.10;90.80
43920;DHT22;29578;51.946;5.874;2022-10-16T04:12:36;13.10;90.80
43920;DHT22;29578;51.946;5.874;2022-10-16T04:15:02;13.10;90.80
43920;DHT22;29578;51.946;5.874;2022-10-16T04:17:27;13.10;90.80
43920;DHT22;29578;51.946;5.874;2022-10-16T04:19:53;13.10;90.80
43920;DHT22;29578;51.946;5.874;2022-10-16T04:22:19;13.10;90.70
43920;DHT22;29578;51.946;5.874;2022-10-16T04:24:45;13.10;90.70
43920;DHT22;29578;51.946;5.874;2022-10-16T04:27:11;13.10;90.70
43920;DHT22;29578;51.946;5.874;2022-10-16T04:29:36;13.10;90.60
43920;DHT22;29578;51.946;5.874;2022-10-16T04:32:02;13.20;90.70
43920;DHT22;29578;51.946;5.874;2022-10-16T04:34:28;13.20;90.70
43920;DHT22;29578;51.946;5.874;2022-10-16T04:36:54;13.20;90.70
43920;DHT22;29578;51.946;5.874;2022-10-16T04:39:20;13.10;90.60
43920;DHT22;29578;51.946;5.874;2022-10-16T04:41:45;13.20;90.70
43920;DHT22;29578;51.946;5.874;2022-10-16T04:44:11;13.10;90.60
43920;DHT22;29578;51.946;5.874;2022-10-16T04:46:37;13.10;90.70
43920;DHT22;29578;51.946;5.874;2022-10-16T04:49:03;13.20;90.70
43920;DHT22;29578;51.946;5.874;2022-10-16T04:51:28;13.10;90.70
43920;DHT22;29578;51.946;5.874;2022-10-16T04:53:55;13.10;90.70
43920;DHT22;29578;51.946;5.874;2022-10-16T04:56:21;13.00;90.70
43920;DHT22;29578;51.946;5.874;2022-10-16T04:58:47;13.00;90.80
43920;DHT22;29578;51.946;5.874;2022-10-16T05:01:13;13.00;90.80
43920;DHT22;29578;51.946;5.874;2022-10-16T05:03:39;13.00;90.80
43920;DHT22;29578;51.946;5.874;2022-10-16T05:06:06;13.00;90.80
43920;DHT22;29578;51.946;5.874;2022-10-16T05:08:32;13.00;90.80
43920;DHT22;29578;51.946;5.874;2022-10-16T05:10:57;13.00;90.80
43920;DHT22;29578;51.946;5.874;2022-10-16T05:13:23;13.00;90.80
43920;DHT22;29578;51.946;5.874;2022-10-16T05:15:49;13.00;90.80
43920;DHT22;29578;51.946;5.874;2022-10-16T05:18:16;13.00;90.80
43920;DHT22;29578;51.946;5.874;2022-10-16T05:20:42;12.90;90.80
43920;DHT22;29578;51.946;5.874;2022-10-16T05:23:08;13.00;90.90
43920;DHT22;29578;51.946;5.874;2022-10-16T05:25:36;13.00;90.90
43920;DHT22;29578;51.946;5.874;2022-10-16T05:28:02;12.80;90.90
43920;DHT22;29578;51.946;5.874;2022-10-16T05:30:27;12.90;90.90
43920;DHT22;29578;51.946;5.874;2022-10-16T05:32:53;12.90;91.00
43920;DHT22;29578;51.946;5.874;2022-10-16T05:35:19;12.80;91.00
43920;DHT22;29578;51.946;5.874;2022-10-16T05:37:46;12.80;91.00
43920;DHT22;29578;51.946;5.874;2022-10-16T05:40:12;12.80;91.00
43920;DHT22;29578;51.946;5.874;2022-10-16T05:42:39;12.80;91.30
43920;DHT22;29578;51.946;5.874;2022-10-16T05:45:07;12.70;91.00
43920;DHT22;29578;51.946;5.874;2022-10-16T05:47:34;12.70;91.10
43920;DHT22;29578;51.946;5.874;2022-10-16T05:50:00;12.70;91.10
43920;DHT22;29578;51.946;5.874;2022-10-16T05:52:27;12.70;91.10
43920;DHT22;29578;51.946;5.874;2022-10-16T05:54:54;12.70;91.20
43920;DHT22;29578;51.946;5.874;2022-10-16T05:57:21;12.60;91.20
43920;DHT22;29578;51.946;5.874;2022-10-16T05:59:46;12.60;91.20
43920;DHT22;29578;51.946;5.874;2022-10-16T06:02:14;12.60;91.20
43920;DHT22;29578;51.946;5.874;2022-10-16T06:04:40;12.50;91.20
43920;DHT22;29578;51.946;5.874;2022-10-16T06:07:05;12.60;91.20
43920;DHT22;29578;51.946;5.874;2022-10-16T06:09:31;12.50;91.20
43920;DHT22;29578;51.946;5.874;2022-10-16T06:11:57;12.60;91.20
43920;DHT22;29578;51.946;5.874;2022-10-16T06:14:23;12.60;91.20
43920;DHT22;29578;51.946;5.874;2022-10-16T06:16:48;12.60;91.20
43920;DHT22;29578;51.946;5.874;2022-10-16T06:19:14;12.60;91.20
43920;DHT22;29578;51.946;5.874;2022-10-16T06:21:41;12.50;91.20
43920;DHT22;29578;51.946;5.874;2022-10-16T06:24:08;12.60;91.20
43920;DHT22;29578;51.946;5.874;2022-10-16T06:26:33;12.60;91.20
43920;DHT22;29578;51.946;5.874;2022-10-16T06:29:00;12.60;91.20
43920;DHT22;29578;51.946;5.874;2022-10-16T06:31:27;12.60;91.20
43920;DHT22;29578;51.946;5.874;2022-10-16T06:33:56;12.60;91.10
43920;DHT22;29578;51.946;5.874;2022-10-16T06:36:22;12.60;91.10
43920;DHT22;29578;51.946;5.874;2022-10-16T06:38:48;12.70;91.10
43920;DHT22;29578;51.946;5.874;2022-10-16T06:41:17;12.70;91.10
43920;DHT22;29578;51.946;5.874;2022-10-16T06:43:43;12.80;91.10
43920;DHT22;29578;51.946;5.874;2022-10-16T06:46:11;12.80;91.00
43920;DHT22;29578;51.946;5.874;2022-10-16T06:48:37;12.80;91.00
43920;DHT22;29578;51.946;5.874;2022-10-16T06:51:06;12.80;91.00
43920;DHT22;29578;51.946;5.874;2022-10-16T06:53:35;13.10;91.00
43920;DHT22;29578;51.946;5.874;2022-10-16T06:56:16;13.10;90.90
43920;DHT22;29578;51.946;5.874;2022-10-16T06:58:43;13.10;90.90
43920;DHT22;29578;51.946;5.874;2022-10-16T07:01:09;13.10;90.80
43920;DHT22;29578;51.946;5.874;2022-10-16T07:03:38;13.10;90.80
43920;DHT22;29578;51.946;5.874;2022-10-16T07:06:05;13.20;90.80
43920;DHT22;29578;51.946;5.874;2022-10-16T07:08:32;13.20;90.70
43920;DHT22;29578;51.946;5.874;2022-10-16T07:11:00;13.20;90.70
43920;DHT22;29578;51.946;5.874;2022-10-16T07:13:26;13.30;90.70
43920;DHT22;29578;51.946;5.874;2022-10-16T07:15:52;13.30;90.70
43920;DHT22;29578;51.946;5.874;2022-10-16T07:18:17;13.30;90.70
43920;DHT22;29578;51.946;5.874;2022-10-16T07:20:43;13.30;90.70
43920;DHT22;29578;51.946;5.874;2022-10-16T07:23:09;13.40;90.70
43920;DHT22;29578;51.946;5.874;2022-10-16T07:25:35;13.40;90.70
43920;DHT22;29578;51.946;5.874;2022-10-16T07:28:01;13.40;90.70
43920;DHT22;29578;51.946;5.874;2022-10-16T07:30:26;13.40;90.70
43920;DHT22;29578;51.946;5.874;2022-10-16T07:32:52;13.50;90.70
43920;DHT22;29578;51.946;5.874;2022-10-16T07:35:18;13.50;90.70
43920;DHT22;29578;51.946;5.874;2022-10-16T07:37:45;13.50;90.70
43920;DHT22;29578;51.946;5.874;2022-10-16T07:40:11;13.50;90.70
43920;DHT22;29578;51.946;5.874;2022-10-16T07:42:36;13.60;90.70
43920;DHT22;29578;51.946;5.874;2022-10-16T07:45:03;13.50;90.60
43920;DHT22;29578;51.946;5.874;2022-10-16T07:47:28;13.60;90.60
43920;DHT22;29578;51.946;5.874;2022-10-16T07:49:54;13.70;90.70
43920;DHT22;29578;51.946;5.874;2022-10-16T07:52:20;13.70;90.60
43920;DHT22;29578;51.946;5.874;2022-10-16T07:54:46;13.80;90.60
43920;DHT22;29578;51.946;5.874;2022-10-16T07:57:11;13.90;90.60
43920;DHT22;29578;51.946;5.874;2022-10-16T07:59:44;14.00;90.50
43920;DHT22;29578;51.946;5.874;2022-10-16T08:02:09;14.00;90.40
43920;DHT22;29578;51.946;5.874;2022-10-16T08:04:35;14.10;90.40
43920;DHT22;29578;51.946;5.874;2022-10-16T08:07:01;14.10;90.40
43920;DHT22;29578;51.946;5.874;2022-10-16T08:09:26;14.10;90.40
43920;DHT22;29578;51.946;5.874;2022-10-16T08:11:52;14.10;90.40
43920;DHT22;29578;51.946;5.874;2022-10-16T08:14:18;14.30;90.30
43920;DHT22;29578;51.946;5.874;2022-10-16T08:16:44;14.30;90.20
43920;DHT22;29578;51.946;5.874;2022-10-16T08:19:09;14.40;90.20
43920;DHT22;29578;51.946;5.874;2022-10-16T08:21:35;14.40;90.20
43920;DHT22;29578;51.946;5.874;2022-10-16T08:24:01;14.40;90.20
43920;DHT22;29578;51.946;5.874;2022-10-16T08:26:27;14.60;90.20
43920;DHT22;29578;51.946;5.874;2022-10-16T08:28:53;14.60;90.20
43920;DHT22;29578;51.946;5.874;2022-10-16T08:31:19;14.60;90.10
43920;DHT22;29578;51.946;5.874;2022-10-16T08:33:45;14.60;90.00
43920;DHT22;29578;51.946;5.874;2022-10-16T08:36:12;14.70;90.10
43920;DHT22;29578;51.946;5.874;2022-10-16T08:38:38;14.60;90.10
43920;DHT22;29578;51.946;5.874;2022-10-16T08:41:24;14.70;90.10
43920;DHT22;29578;51.946;5.874;2022-10-16T08:44:22;14.60;90.10
43920;DHT22;29578;51.946;5.874;2022-10-16T08:49:57;14.70;90.10
43920;DHT22;29578;51.946;5.874;2022-10-16T08:52:32;14.70;90.10
43920;DHT22;29578;51.946;5.874;2022-10-16T08:54:59;14.70;90.10
43920;DHT22;29578;51.946;5.874;2022-10-16T08:57:26;14.70;90.10
43920;DHT22;29578;51.946;5.874;2022-10-16T08:59:52;14.70;90.10
43920;DHT22;29578;51.946;5.874;2022-10-16T09:02:27;14.80;90.10
43920;DHT22;29578;51.946;5.874;2022-10-16T09:07:49;14.80;90.10
43920;DHT22;29578;51.946;5.874;2022-10-16T09:10:35;14.70;90.00
43920;DHT22;29578;51.946;5.874;2022-10-16T09:13:17;14.80;90.00
43920;DHT22;29578;51.946;5.874;2022-10-16T09:15:54;14.90;90.10
43920;DHT22;29578;51.946;5.874;2022-10-16T09:18:29;14.80;90.00
43920;DHT22;29578;51.946;5.874;2022-10-16T09:21:04;14.80;90.00
43920;DHT22;29578;51.946;5.874;2022-10-16T09:23:34;14.90;90.00
43920;DHT22;29578;51.946;5.874;2022-10-16T09:26:02;14.90;90.00
43920;DHT22;29578;51.946;5.874;2022-10-16T09:28:29;15.00;90.00
43920;DHT22;29578;51.946;5.874;2022-10-16T09:30:54;15.00;89.90
43920;DHT22;29578;51.946;5.874;2022-10-16T09:33:25;15.00;89.80
43920;DHT22;29578;51.946;5.874;2022-10-16T09:35:53;15.00;89.70
43920;DHT22;29578;51.946;5.874;2022-10-16T09:38:28;15.10;89.70
43920;DHT22;29578;51.946;5.874;2022-10-16T09:41:00;15.10;89.60
43920;DHT22;29578;51.946;5.874;2022-10-16T09:43:33;15.10;89.60
43920;DHT22;29578;51.946;5.874;2022-10-16T09:46:03;15.20;89.50
43920;DHT22;29578;51.946;5.874;2022-10-16T09:51:33;15.20;89.10
43920;DHT22;29578;51.946;5.874;2022-10-16T09:54:20;15.20;89.10
43920;DHT22;29578;51.946;5.874;2022-10-16T09:56:46;15.30;89.20
43920;DHT22;29578;51.946;5.874;2022-10-16T09:59:18;15.30;89.20
43920;DHT22;29578;51.946;5.874;2022-10-16T10:01:47;15.20;89.10
43920;DHT22;29578;51.946;5.874;2022-10-16T10:04:13;15.30;89.20
43920;DHT22;29578;51.946;5.874;2022-10-16T10:06:51;15.30;89.10
43920;DHT22;29578;51.946;5.874;2022-10-16T10:09:26;15.40;88.90
43920;DHT22;29578;51.946;5.874;2022-10-16T10:12:01;15.50;88.80
43920;DHT22;29578;51.946;5.874;2022-10-16T10:14:38;15.50;88.80
43920;DHT22;29578;51.946;5.874;2022-10-16T10:17:17;15.50;88.80
43920;DHT22;29578;51.946;5.874;2022-10-16T10:19:54;15.60;88.70
43920;DHT22;29578;51.946;5.874;2022-10-16T10:22:27;15.60;88.60
43920;DHT22;29578;51.946;5.874;2022-10-16T10:31:10;15.80;88.30
43920;DHT22;29578;51.946;5.874;2022-10-16T10:34:16;15.80;88.10
43920;DHT22;29578;51.946;5.874;2022-10-16T10:36:51;15.90;88.10
43920;DHT22;29578;51.946;5.874;2022-10-16T10:39:25;16.00;88.00
43920;DHT22;29578;51.946;5.874;2022-10-16T10:45:18;16.00;87.80
43920;DHT22;29578;51.946;5.874;2022-10-16T10:47:58;16.00;87.60
43920;DHT22;29578;51.946;5.874;2022-10-16T10:50:43;16.20;87.50
43920;DHT22;29578;51.946;5.874;2022-10-16T10:53:24;16.20;87.20
43920;DHT22;29578;51.946;5.874;2022-10-16T10:56:09;16.20;87.00
43920;DHT22;29578;51.946;5.874;2022-10-16T11:01:48;16.40;86.80
43920;DHT22;29578;51.946;5.874;2022-10-16T11:04:55;16.40;86.50
43920;DHT22;29578;51.946;5.874;2022-10-16T11:07:27;16.40;86.30
43920;DHT22;29578;51.946;5.874;2022-10-16T11:09:58;16.50;86.30
43920;DHT22;29578;51.946;5.874;2022-10-16T11:12:29;16.50;86.40
43920;DHT22;29578;51.946;5.874;2022-10-16T11:15:21;16.60;86.30
43920;DHT22;29578;51.946;5.874;2022-10-16T11:17:57;16.60;86.10
43920;DHT22;29578;51.946;5.874;2022-10-16T11:23:16;16.70;85.70
43920;DHT22;29578;51.946;5.874;2022-10-16T11:25:44;16.70;85.60
43920;DHT22;29578;51.946;5.874;2022-10-16T11:28:14;16.70;85.50
43920;DHT22;29578;51.946;5.874;2022-10-16T11:31:02;16.80;85.30
43920;DHT22;29578;51.946;5.874;2022-10-16T11:33:37;16.90;85.90
43920;DHT22;29578;51.946;5.874;2022-10-16T11:41:46;17.10;84.90
43920;DHT22;29578;51.946;5.874;2022-10-16T11:44:26;17.20;84.60
43920;DHT22;29578;51.946;5.874;2022-10-16T11:49:44;17.20;84.40
43920;DHT22;29578;51.946;5.874;2022-10-16T11:52:44;17.30;84.40
43920;DHT22;29578;51.946;5.874;2022-10-16T11:55:16;17.30;84.30
43920;DHT22;29578;51.946;5.874;2022-10-16T11:57:49;17.30;84.20
43920;DHT22;29578;51.946;5.874;2022-10-16T12:00:27;17.30;84.10
43920;DHT22;29578;51.946;5.874;2022-10-16T12:03:03;17.50;84.00
43920;DHT22;29578;51.946;5.874;2022-10-16T12:05:50;17.50;83.60
43920;DHT22;29578;51.946;5.874;2022-10-16T12:08:18;17.50;83.50
43920;DHT22;29578;51.946;5.874;2022-10-16T12:10:46;17.60;83.40
43920;DHT22;29578;51.946;5.874;2022-10-16T12:13:32;17.70;83.50
43920;DHT22;29578;51.946;5.874;2022-10-16T12:16:19;17.80;83.20
43920;DHT22;29578;51.946;5.874;2022-10-16T12:18:47;17.90;82.90
43920;DHT22;29578;51.946;5.874;2022-10-16T12:21:14;17.90;82.70
43920;DHT22;29578;51.946;5.874;2022-10-16T12:23:58;17.90;82.50
43920;DHT22;29578;51.946;5.874;2022-10-16T12:26:28;18.00;82.50
43920;DHT22;29578;51.946;5.874;2022-10-16T12:28:55;18.00;82.40
43920;DHT22;29578;51.946;5.874;2022-10-16T12:31:22;18.00;82.20
43920;DHT22;29578;51.946;5.874;2022-10-16T12:34:02;18.00;82.20
43920;DHT22;29578;51.946;5.874;2022-10-16T12:36:32;18.00;82.20
43920;DHT22;29578;51.946;5.874;2022-10-16T12:38:58;18.00;82.30
43920;DHT22;29578;51.946;5.874;2022-10-16T12:41:35;18.00;82.30
43920;DHT22;29578;51.946;5.874;2022-10-16T12:44:03;18.00;82.30
43920;DHT22;29578;51.946;5.874;2022-10-16T12:46:39;18.10;82.30
43920;DHT22;29578;51.946;5.874;2022-10-16T12:49:23;18.00;82.00
43920;DHT22;29578;51.946;5.874;2022-10-16T12:51:55;18.20;81.80
43920;DHT22;29578;51.946;5.874;2022-10-16T12:54:35;18.30;81.60
43920;DHT22;29578;51.946;5.874;2022-10-16T12:57:21;18.30;81.30
43920;DHT22;29578;51.946;5.874;2022-10-16T13:00:13;18.30;81.20
43920;DHT22;29578;51.946;5.874;2022-10-16T13:02:57;18.40;81.20
43920;DHT22;29578;51.946;5.874;2022-10-16T13:11:37;18.30;81.00
43920;DHT22;29578;51.946;5.874;2022-10-16T13:17:16;18.10;81.10
43920;DHT22;29578;51.946;5.874;2022-10-16T13:19:58;18.10;81.40
43920;DHT22;29578;51.946;5.874;2022-10-16T13:23:00;18.10;81.50
43920;DHT22;29578;51.946;5.874;2022-10-16T13:28:34;18.10;81.50
43920;DHT22;29578;51.946;5.874;2022-10-16T13:31:01;18.20;81.30
43920;DHT22;29578;51.946;5.874;2022-10-16T13:33:36;18.20;81.10
43920;DHT22;29578;51.946;5.874;2022-10-16T13:36:03;18.30;80.80
43920;DHT22;29578;51.946;5.874;2022-10-16T13:38:32;18.30;80.80
43920;DHT22;29578;51.946;5.874;2022-10-16T13:41:01;18.40;80.60
43920;DHT22;29578;51.946;5.874;2022-10-16T13:43:43;18.40;80.40
43920;DHT22;29578;51.946;5.874;2022-10-16T13:46:25;18.40;80.20
43920;DHT22;29578;51.946;5.874;2022-10-16T13:49:16;18.40;79.50
43920;DHT22;29578;51.946;5.874;2022-10-16T13:51:54;18.40;80.00
43920;DHT22;29578;51.946;5.874;2022-10-16T13:54:20;18.30;80.00
43920;DHT22;29578;51.946;5.874;2022-10-16T13:56:46;18.40;80.00
43920;DHT22;29578;51.946;5.874;2022-10-16T13:59:33;18.30;79.90
43920;DHT22;29578;51.946;5.874;2022-10-16T14:02:00;18.30;79.80
43920;DHT22;29578;51.946;5.874;2022-10-16T14:04:32;18.30;79.80
43920;DHT22;29578;51.946;5.874;2022-10-16T14:06:58;18.30;79.80
43920;DHT22;29578;51.946;5.874;2022-10-16T14:09:27;18.30;79.90
43920;DHT22;29578;51.946;5.874;2022-10-16T14:11:58;18.20;79.90
43920;DHT22;29578;51.946;5.874;2022-10-16T14:14:29;18.20;80.10
43920;DHT22;29578;51.946;5.874;2022-10-16T14:16:57;18.20;80.20
43920;DHT22;29578;51.946;5.874;2022-10-16T14:19:25;18.10;80.30
43920;DHT22;29578;51.946;5.874;2022-10-16T14:21:53;18.10;80.30
43920;DHT22;29578;51.946;5.874;2022-10-16T14:24:32;18.10;80.30
43920;DHT22;29578;51.946;5.874;2022-10-16T14:27:00;18.20;80.40
43920;DHT22;29578;51.946;5.874;2022-10-16T14:29:27;18.20;80.40
43920;DHT22;29578;51.946;5.874;2022-10-16T14:31:58;18.10;80.30
43920;DHT22;29578;51.946;5.874;2022-10-16T14:34:25;18.10;80.40
43920;DHT22;29578;51.946;5.874;2022-10-16T14:36:54;18.00;80.50
43920;DHT22;29578;51.946;5.874;2022-10-16T14:39:21;18.00;80.60
43920;DHT22;29578;51.946;5.874;2022-10-16T14:41:50;18.00;80.60
43920;DHT22;29578;51.946;5.874;2022-10-16T14:44:18;18.00;80.60
43920;DHT22;29578;51.946;5.874;2022-10-16T14:46:45;17.90;80.50
43920;DHT22;29578;51.946;5.874;2022-10-16T14:49:18;18.00;80.50
43920;DHT22;29578;51.946;5.874;2022-10-16T14:51:45;18.00;80.60
43920;DHT22;29578;51.946;5.874;2022-10-16T14:54:12;17.90;80.70
43920;DHT22;29578;51.946;5.874;2022-10-16T14:56:59;17.80;80.90
43920;DHT22;29578;51.946;5.874;2022-10-16T14:59:38;17.80;81.00
43920;DHT22;29578;51.946;5.874;2022-10-16T15:02:25;17.70;81.10
43920;DHT22;29578;51.946;5.874;2022-10-16T15:04:52;17.70;81.20
43920;DHT22;29578;51.946;5.874;2022-10-16T15:07:18;17.70;81.20
43920;DHT22;29578;51.946;5.874;2022-10-16T15:09:44;17.70;81.80
43920;DHT22;29578;51.946;5.874;2022-10-16T15:12:10;17.80;81.20
43920;DHT22;29578;51.946;5.874;2022-10-16T15:14:35;17.70;81.20
43920;DHT22;29578;51.946;5.874;2022-10-16T15:17:02;17.70;81.30
43920;DHT22;29578;51.946;5.874;2022-10-16T15:19:27;17.60;81.40
43920;DHT22;29578;51.946;5.874;2022-10-16T15:21:53;17.60;81.60
43920;DHT22;29578;51.946;5.874;2022-10-16T15:24:19;17.50;81.70
43920;DHT22;29578;51.946;5.874;2022-10-16T15:26:45;17.40;81.80
43920;DHT22;29578;51.946;5.874;2022-10-16T15:29:12;17.40;82.00
43920;DHT22;29578;51.946;5.874;2022-10-16T15:31:38;17.30;82.10
43920;DHT22;29578;51.946;5.874;2022-10-16T15:34:08;17.20;82.20
43920;DHT22;29578;51.946;5.874;2022-10-16T15:36:36;17.20;82.30
43920;DHT22;29578;51.946;5.874;2022-10-16T15:39:08;17.20;82.40
43920;DHT22;29578;51.946;5.874;2022-10-16T15:41:36;17.10;82.50
43920;DHT22;29578;51.946;5.874;2022-10-16T15:44:01;17.00;82.70
43920;DHT22;29578;51.946;5.874;2022-10-16T15:46:27;17.00;82.80
43920;DHT22;29578;51.946;5.874;2022-10-16T15:48:57;17.00;82.90
43920;DHT22;29578;51.946;5.874;2022-10-16T15:51:23;16.90;83.00
43920;DHT22;29578;51.946;5.874;2022-10-16T15:53:48;16.90;83.20
43920;DHT22;29578;51.946;5.874;2022-10-16T15:56:16;16.80;83.20
43920;DHT22;29578;51.946;5.874;2022-10-16T15:58:43;16.80;83.40
43920;DHT22;29578;51.946;5.874;2022-10-16T16:01:09;16.70;83.40
43920;DHT22;29578;51.946;5.874;2022-10-16T16:03:36;16.80;83.60
43920;DHT22;29578;51.946;5.874;2022-10-16T16:06:05;16.60;83.60
43920;DHT22;29578;51.946;5.874;2022-10-16T16:08:32;16.60;83.70
43920;DHT22;29578;51.946;5.874;2022-10-16T16:10:59;16.50;83.70
43920;DHT22;29578;51.946;5.874;2022-10-16T16:13:25;16.50;83.80
43920;DHT22;29578;51.946;5.874;2022-10-16T16:15:51;16.50;83.90
43920;DHT22;29578;51.946;5.874;2022-10-16T16:18:17;16.40;84.10
43920;DHT22;29578;51.946;5.874;2022-10-16T16:20:43;16.40;84.10
43920;DHT22;29578;51.946;5.874;2022-10-16T16:23:08;16.30;84.10
43920;DHT22;29578;51.946;5.874;2022-10-16T16:25:34;16.30;84.20
43920;DHT22;29578;51.946;5.874;2022-10-16T16:28:00;16.20;84.30
43920;DHT22;29578;51.946;5.874;2022-10-16T16:30:27;16.20;84.40
43920;DHT22;29578;51.946;5.874;2022-10-16T16:32:52;16.20;84.40
43920;DHT22;29578;51.946;5.874;2022-10-16T16:35:18;16.00;84.40
43920;DHT22;29578;51.946;5.874;2022-10-16T16:37:44;16.10;84.60
43920;DHT22;29578;51.946;5.874;2022-10-16T16:40:10;16.00;84.60
43920;DHT22;29578;51.946;5.874;2022-10-16T16:42:35;16.00;85.30
43920;DHT22;29578;51.946;5.874;2022-10-16T16:45:01;15.90;84.70